Time;durP1;ratioP1;P1;durP2;ratioP2;P2;SDS_P1;SDS_P2;PMS_P1;PMS_P2;Temp;Humidity;BMP_temperature;BMP_pressure;BME280_temperature;BME280_humidity;BME280_pressure;Samples;Min_cycle;Max_cycle;Signal;HPM_P1;HPM_P2
2022/01/03 00:01:05;;;;;;;7.40;2.47;;;;;;;;;;5036434;28;20189;-64
2022/01/03 00:03:31;;;;;;;12.77;3.00;;;;;;;;;;5034840;28;20186;-65
2022/01/03 00:05:57;;;;;;;12.40;3.13;;;;;;;;;;5034816;28;20198;-65
2022/01/03 00:08:24;;;;;;;7.43;2.50;;;;;;;;;;5035959;28;20214;-67
2022/01/03 00:10:51;;;;;;;11.70;2.70;;;;;;;;;;5036797;28;20178;-67
2022/01/03 00:13:20;;;;;;;11.30;2.90;;;;;;;;;;5034971;28;20191;-66
2022/01/03 00:15:46;;;;;;;10.70;3.30;;;;;;;;;;5035547;28;20567;-66
2022/01/03 00:18:12;;;;;;;8.70;2.87;;;;;;;;;;5034339;28;20213;-65
2022/01/03 00:20:40;;;;;;;9.93;3.10;;;;;;;;;;5036215;28;20186;-65
2022/01/03 00:23:07;;;;;;;9.60;3.13;;;;;;;;;;5035001;28;20183;-66
2022/01/03 00:25:37;;;;;;;5.83;2.60;;;;;;;;;;5036105;28;20199;-66
2022/01/03 00:28:11;;;;;;;8.60;2.53;;;;;;;;;;5035981;28;20599;-66
2022/01/03 00:30:41;;;;;;;11.23;3.10;;;;;;;;;;5036116;28;20219;-66
2022/01/03 00:33:07;;;;;;;8.87;2.97;;;;;;;;;;5034702;28;20543;-65
2022/01/03 00:35:40;;;;;;;10.50;3.10;;;;;;;;;;5035472;28;20215;-66
2022/01/03 00:38:08;;;;;;;13.67;3.07;;;;;;;;;;5035680;28;20699;-65
2022/01/03 00:40:34;;;;;;;11.20;3.07;;;;;;;;;;5034233;28;20258;-65
2022/01/03 00:43:01;;;;;;;14.73;3.00;;;;;;;;;;5036133;28;20607;-66
2022/01/03 00:45:27;;;;;;;13.67;3.17;;;;;;;;;;5035690;28;20199;-68
2022/01/03 00:47:53;;;;;;;15.50;3.20;;;;;;;;;;5035208;28;20186;-65
2022/01/03 00:50:22;;;;;;;17.83;3.23;;;;;;;;;;5038598;28;20179;-67
2022/01/03 00:52:48;;;;;;;17.07;3.73;;;;;;;;;;5042660;28;20180;-67
2022/01/03 00:55:14;;;;;;;14.87;3.10;;;;;;;;;;5040270;28;20206;-66
2022/01/03 00:57:43;;;;;;;11.37;3.63;;;;;;;;;;5041055;28;20201;-66
2022/01/03 01:00:09;;;;;;;15.37;3.20;;;;;;;;;;5039925;28;20179;-66
2022/01/03 01:02:39;;;;;;;13.80;3.27;;;;;;;;;;5034650;28;20262;-67
2022/01/03 01:05:05;;;;;;;13.47;3.37;;;;;;;;;;5033685;28;20203;-66
2022/01/03 01:07:32;;;;;;;10.90;2.67;;;;;;;;;;5034943;28;20175;-66
2022/01/03 01:10:04;;;;;;;18.03;3.97;;;;;;;;;;5033411;28;20183;-67
2022/01/03 01:12:30;;;;;;;19.37;3.30;;;;;;;;;;5034291;28;20640;-67
2022/01/03 01:14:56;;;;;;;11.03;2.90;;;;;;;;;;5033215;28;20683;-66
2022/01/03 01:17:25;;;;;;;13.53;3.53;;;;;;;;;;5034605;28;20180;-68
2022/01/03 01:19:51;;;;;;;15.47;3.60;;;;;;;;;;5034851;28;20241;-67
2022/01/03 01:22:20;;;;;;;12.90;3.13;;;;;;;;;;5034566;28;20175;-66
2022/01/03 01:24:50;;;;;;;16.60;4.07;;;;;;;;;;5034633;28;20333;-67
2022/01/03 01:30:01;;;;;;;9.93;2.80;;;;;;;;;;5035140;28;20168;-65
2022/01/03 01:32:27;;;;;;;17.93;4.00;;;;;;;;;;5033460;28;20577;-66
2022/01/03 01:34:54;;;;;;;11.60;3.03;;;;;;;;;;5033003;28;20226;-67
2022/01/03 01:37:23;;;;;;;17.40;4.20;;;;;;;;;;5034791;28;20631;-66
2022/01/03 01:39:49;;;;;;;16.43;3.70;;;;;;;;;;5034776;28;20193;-64
2022/01/03 01:42:17;;;;;;;9.00;3.10;;;;;;;;;;5035038;28;20370;-65
2022/01/03 01:44:47;;;;;;;12.33;3.37;;;;;;;;;;5034639;28;20236;-66
2022/01/03 01:47:13;;;;;;;20.70;3.63;;;;;;;;;;5035103;28;20175;-64
2022/01/03 01:49:44;;;;;;;18.73;3.67;;;;;;;;;;5036964;28;20186;-64
2022/01/03 01:52:15;;;;;;;13.90;2.97;;;;;;;;;;5044336;28;20179;-64
2022/01/03 01:54:45;;;;;;;16.27;3.20;;;;;;;;;;5044609;28;20241;-65
2022/01/03 01:57:11;;;;;;;16.87;4.27;;;;;;;;;;5043479;28;20179;-64
2022/01/03 01:59:37;;;;;;;17.90;3.80;;;;;;;;;;5034148;28;20214;-65
2022/01/03 02:02:05;;;;;;;13.47;3.30;;;;;;;;;;5034979;28;20179;-64
2022/01/03 02:04:41;;;;;;;14.83;3.17;;;;;;;;;;5034686;28;20244;-64
2022/01/03 02:07:26;;;;;;;17.30;3.50;;;;;;;;;;5033015;28;20170;-65
2022/01/03 02:10:12;;;;;;;17.60;3.60;;;;;;;;;;5033246;28;20194;-65
2022/01/03 02:12:40;;;;;;;18.37;3.10;;;;;;;;;;5035482;28;20179;-64
2022/01/03 02:15:09;;;;;;;18.47;3.50;;;;;;;;;;5038419;28;20233;-64
2022/01/03 02:17:36;;;;;;;15.33;4.17;;;;;;;;;;5038438;28;20183;-64
2022/01/03 02:20:04;;;;;;;14.17;3.60;;;;;;;;;;5037032;28;20206;-65
2022/01/03 02:22:30;;;;;;;12.87;3.00;;;;;;;;;;5038887;28;20190;-65
2022/01/03 02:24:56;;;;;;;18.30;3.43;;;;;;;;;;5036981;28;20682;-64
2022/01/03 02:27:22;;;;;;;13.43;2.70;;;;;;;;;;5038677;28;20175;-65
2022/01/03 02:29:48;;;;;;;12.47;3.00;;;;;;;;;;5037882;28;20190;-65
2022/01/03 02:32:14;;;;;;;16.17;3.33;;;;;;;;;;5038048;28;20179;-65
2022/01/03 02:34:41;;;;;;;11.57;2.97;;;;;;;;;;5037815;28;20214;-64
2022/01/03 02:37:07;;;;;;;16.10;3.10;;;;;;;;;;5037723;28;20183;-64
2022/01/03 02:39:34;;;;;;;12.63;3.03;;;;;;;;;;5038205;28;20693;-65
2022/01/03 02:42:00;;;;;;;8.43;2.63;;;;;;;;;;5048583;28;20221;-67
2022/01/03 02:44:26;;;;;;;13.07;2.87;;;;;;;;;;5055456;28;20190;-67
2022/01/03 02:46:52;;;;;;;11.80;3.03;;;;;;;;;;5040045;28;20167;-67
2022/01/03 02:49:18;;;;;;;13.87;2.87;;;;;;;;;;5037116;28;20558;-64
2022/01/03 02:51:45;;;;;;;12.53;3.00;;;;;;;;;;5037912;28;20175;-66
2022/01/03 02:54:11;;;;;;;8.50;2.23;;;;;;;;;;5037778;28;20179;-65
2022/01/03 02:56:39;;;;;;;17.07;2.83;;;;;;;;;;5037583;28;20310;-65
2022/01/03 02:59:12;;;;;;;11.57;3.20;;;;;;;;;;5037611;28;20207;-65
2022/01/03 03:01:37;;;;;;;15.73;3.57;;;;;;;;;;5037493;28;20210;-63
2022/01/03 03:04:03;;;;;;;12.30;3.20;;;;;;;;;;5037514;28;20544;-64
2022/01/03 03:06:30;;;;;;;12.90;3.57;;;;;;;;;;5037068;28;20601;-64
2022/01/03 03:08:56;;;;;;;15.23;2.77;;;;;;;;;;5036763;28;20226;-65
2022/01/03 03:11:22;;;;;;;14.57;2.83;;;;;;;;;;5036192;28;20680;-65
2022/01/03 03:13:47;;;;;;;14.87;3.33;;;;;;;;;;5037907;28;20531;-64
2022/01/03 03:16:13;;;;;;;12.83;2.70;;;;;;;;;;5036982;28;20613;-63
2022/01/03 03:18:43;;;;;;;16.73;3.30;;;;;;;;;;5035787;28;20749;-64
2022/01/03 03:21:10;;;;;;;17.77;3.30;;;;;;;;;;5036055;28;20175;-65
2022/01/03 03:23:35;;;;;;;16.80;2.83;;;;;;;;;;5036480;28;20190;-65
2022/01/03 03:26:01;;;;;;;14.60;2.90;;;;;;;;;;5035372;28;20199;-64
2022/01/03 03:28:27;;;;;;;11.70;3.10;;;;;;;;;;5036903;28;20183;-66
2022/01/03 03:30:54;;;;;;;15.67;3.13;;;;;;;;;;5037219;28;20266;-64
2022/01/03 03:33:22;;;;;;;11.17;2.93;;;;;;;;;;5035855;28;20270;-64
2022/01/03 03:35:50;;;;;;;16.90;3.53;;;;;;;;;;5035147;28;20273;-65
2022/01/03 03:38:16;;;;;;;11.60;3.33;;;;;;;;;;5036559;28;20199;-64
2022/01/03 03:40:45;;;;;;;10.80;2.87;;;;;;;;;;5035446;28;20179;-64
2022/01/03 03:43:11;;;;;;;18.00;4.10;;;;;;;;;;5036640;28;20175;-64
2022/01/03 03:45:37;;;;;;;18.73;3.13;;;;;;;;;;5036735;28;20222;-65
2022/01/03 03:48:03;;;;;;;15.03;3.20;;;;;;;;;;5036619;28;20186;-65
2022/01/03 03:50:29;;;;;;;13.27;2.50;;;;;;;;;;5036351;28;20229;-65
2022/01/03 03:52:55;;;;;;;17.23;3.27;;;;;;;;;;5036549;28;20187;-65
2022/01/03 03:55:21;;;;;;;12.97;3.03;;;;;;;;;;5036116;28;20615;-65
2022/01/03 03:57:47;;;;;;;9.50;2.17;;;;;;;;;;5035977;28;22113;-66
2022/01/03 04:00:15;;;;;;;11.67;2.77;;;;;;;;;;5034843;28;20278;-65
2022/01/03 04:02:41;;;;;;;9.57;2.97;;;;;;;;;;5035928;28;20233;-65
2022/01/03 04:05:07;;;;;;;16.43;3.00;;;;;;;;;;5034616;28;20202;-65
2022/01/03 04:07:33;;;;;;;14.67;3.67;;;;;;;;;;5036313;28;20187;-64
2022/01/03 04:09:59;;;;;;;16.00;3.13;;;;;;;;;;5036763;28;20178;-64
2022/01/03 04:12:26;;;;;;;9.17;2.73;;;;;;;;;;5034776;28;20828;-65
2022/01/03 04:14:52;;;;;;;16.87;3.37;;;;;;;;;;5036032;28;20210;-65
2022/01/03 04:17:18;;;;;;;14.17;3.00;;;;;;;;;;5036079;28;20171;-65
2022/01/03 04:19:44;;;;;;;17.10;2.97;;;;;;;;;;5034545;28;20213;-65
2022/01/03 04:22:10;;;;;;;13.70;3.43;;;;;;;;;;5036300;28;20696;-64
2022/01/03 04:24:36;;;;;;;13.77;3.27;;;;;;;;;;5035630;28;20698;-65
2022/01/03 04:27:02;;;;;;;15.03;2.97;;;;;;;;;;5035765;28;20174;-64
2022/01/03 04:29:29;;;;;;;16.30;2.77;;;;;;;;;;5035747;28;20179;-65
2022/01/03 04:31:55;;;;;;;15.27;2.77;;;;;;;;;;5036187;28;20228;-65
2022/01/03 04:34:21;;;;;;;12.83;3.30;;;;;;;;;;5035596;28;20297;-65
2022/01/03 04:36:47;;;;;;;16.77;3.23;;;;;;;;;;5035880;28;20317;-65
2022/01/03 04:39:12;;;;;;;13.33;3.37;;;;;;;;;;5035918;28;20199;-65
2022/01/03 04:41:39;;;;;;;12.30;3.33;;;;;;;;;;5035804;28;20530;-65
2022/01/03 04:44:05;;;;;;;13.00;3.50;;;;;;;;;;5034324;28;20179;-67
2022/01/03 04:46:35;;;;;;;9.93;2.80;;;;;;;;;;5034963;28;20182;-65
2022/01/03 04:49:01;;;;;;;15.43;3.30;;;;;;;;;;5035755;28;20218;-65
2022/01/03 04:51:27;;;;;;;14.40;3.60;;;;;;;;;;5035889;28;20179;-65
2022/01/03 04:53:53;;;;;;;15.43;3.47;;;;;;;;;;5034161;28;20193;-65
2022/01/03 04:56:19;;;;;;;14.30;3.20;;;;;;;;;;5035277;28;20201;-65
2022/01/03 04:58:45;;;;;;;9.57;2.67;;;;;;;;;;5036173;28;20305;-67
2022/01/03 05:01:12;;;;;;;16.57;3.63;;;;;;;;;;5035097;28;20179;-65
2022/01/03 05:03:38;;;;;;;17.93;3.03;;;;;;;;;;5034585;28;20645;-66
2022/01/03 05:06:04;;;;;;;14.03;2.90;;;;;;;;;;5035589;28;20226;-66
2022/01/03 05:08:30;;;;;;;19.80;3.60;;;;;;;;;;5036283;28;20186;-66
2022/01/03 05:11:00;;;;;;;10.60;2.70;;;;;;;;;;5035536;28;20194;-65
2022/01/03 05:13:26;;;;;;;19.17;3.83;;;;;;;;;;5033757;28;20186;-65
2022/01/03 05:15:52;;;;;;;13.07;3.30;;;;;;;;;;5035208;28;20209;-66
2022/01/03 05:18:18;;;;;;;16.83;3.47;;;;;;;;;;5035415;28;20207;-66
2022/01/03 05:20:44;;;;;;;10.17;2.73;;;;;;;;;;5035277;28;20179;-66
2022/01/03 05:23:10;;;;;;;13.13;3.03;;;;;;;;;;5033906;28;20175;-66
2022/01/03 05:25:36;;;;;;;9.23;3.00;;;;;;;;;;5034727;28;20207;-65
2022/01/03 05:28:02;;;;;;;8.07;2.43;;;;;;;;;;5034780;28;20183;-65
2022/01/03 05:30:28;;;;;;;12.23;2.97;;;;;;;;;;5033449;28;20550;-66
2022/01/03 05:32:54;;;;;;;12.40;3.23;;;;;;;;;;5035373;28;20183;-65
2022/01/03 05:35:20;;;;;;;17.77;3.47;;;;;;;;;;5037428;28;20228;-65
2022/01/03 05:37:46;;;;;;;10.83;3.07;;;;;;;;;;5047309;28;20186;-66
2022/01/03 05:40:12;;;;;;;12.50;3.53;;;;;;;;;;5045659;28;20643;-65
2022/01/03 05:42:39;;;;;;;15.47;3.23;;;;;;;;;;5043300;28;20171;-65
2022/01/03 05:45:05;;;;;;;16.43;3.43;;;;;;;;;;5037715;28;20195;-66
2022/01/03 05:47:31;;;;;;;18.30;3.23;;;;;;;;;;5036612;28;20175;-65
2022/01/03 05:49:57;;;;;;;16.17;3.00;;;;;;;;;;5035951;28;20186;-65
2022/01/03 05:52:23;;;;;;;13.47;2.70;;;;;;;;;;5035690;28;20179;-65
2022/01/03 05:54:49;;;;;;;12.77;2.87;;;;;;;;;;5034586;28;20348;-65
2022/01/03 05:57:15;;;;;;;13.37;3.50;;;;;;;;;;5038287;28;20792;-66
2022/01/03 05:59:41;;;;;;;11.03;2.63;;;;;;;;;;5044099;28;20199;-65
2022/01/03 06:02:07;;;;;;;19.83;4.07;;;;;;;;;;5042231;28;20234;-66
2022/01/03 06:05:07;;;;;;;14.60;3.33;;;;;;;;;;5045964;28;20199;-66
2022/01/03 06:07:26;;;;;;;14.10;3.47;;;;;;;;;;5042535;28;20194;-65
2022/01/03 06:09:52;;;;;;;16.77;3.23;;;;;;;;;;5034506;28;20186;-66
2022/01/03 06:12:18;;;;;;;12.80;3.33;;;;;;;;;;5033247;28;20221;-65
2022/01/03 06:14:45;;;;;;;15.23;3.50;;;;;;;;;;5035004;28;20202;-65
2022/01/03 06:17:12;;;;;;;9.43;2.57;;;;;;;;;;5033225;28;20190;-65
2022/01/03 06:19:38;;;;;;;14.23;3.17;;;;;;;;;;5034241;28;20199;-65
2022/01/03 06:22:04;;;;;;;15.63;3.27;;;;;;;;;;5032669;28;20643;-66
2022/01/03 06:24:31;;;;;;;15.00;3.17;;;;;;;;;;5035615;28;20269;-65
2022/01/03 06:26:57;;;;;;;13.67;3.07;;;;;;;;;;5034338;28;20602;-65
2022/01/03 06:29:23;;;;;;;12.63;2.90;;;;;;;;;;5033897;28;20215;-66
2022/01/03 06:31:50;;;;;;;10.87;3.10;;;;;;;;;;5034397;28;20184;-65
2022/01/03 06:34:17;;;;;;;11.00;3.03;;;;;;;;;;5033959;28;20577;-65
2022/01/03 06:36:43;;;;;;;17.40;4.73;;;;;;;;;;5033988;28;20266;-67
2022/01/03 06:39:11;;;;;;;14.70;6.43;;;;;;;;;;5035135;28;20645;-66
2022/01/03 06:41:38;;;;;;;15.57;5.63;;;;;;;;;;5035080;28;20167;-67
2022/01/03 06:44:04;;;;;;;21.07;6.30;;;;;;;;;;5034171;28;20186;-65
2022/01/03 06:46:30;;;;;;;19.60;4.50;;;;;;;;;;5034105;28;20182;-65
2022/01/03 06:48:56;;;;;;;19.20;6.73;;;;;;;;;;5033347;28;20766;-66
2022/01/03 06:51:22;;;;;;;11.77;4.90;;;;;;;;;;5033538;28;20179;-66
2022/01/03 06:53:48;;;;;;;10.47;3.47;;;;;;;;;;5034087;28;20550;-66
2022/01/03 06:56:14;;;;;;;13.70;3.63;;;;;;;;;;5033619;28;20222;-66
2022/01/03 06:58:42;;;;;;;15.63;3.83;;;;;;;;;;5035014;28;20203;-65
2022/01/03 07:01:08;;;;;;;15.40;2.97;;;;;;;;;;5035949;28;20187;-66
2022/01/03 07:03:34;;;;;;;14.07;3.70;;;;;;;;;;5037725;28;20181;-66
2022/01/03 07:06:00;;;;;;;11.07;3.53;;;;;;;;;;5037383;28;20256;-65
2022/01/03 07:08:26;;;;;;;13.70;3.13;;;;;;;;;;5037125;28;20187;-66
2022/01/03 07:10:52;;;;;;;10.50;2.70;;;;;;;;;;5037126;28;20190;-66
2022/01/03 07:13:19;;;;;;;18.70;6.30;;;;;;;;;;5037223;28;20254;-66
2022/01/03 07:21:29;;;;;;;16.77;3.70;;;;;;;;;;5025153;28;20244;-65
2022/01/03 07:23:55;;;;;;;14.93;4.70;;;;;;;;;;5035637;28;20211;-66
2022/01/03 07:26:21;;;;;;;20.30;5.20;;;;;;;;;;5037442;28;20195;-65
2022/01/03 07:28:47;;;;;;;16.63;6.07;;;;;;;;;;5036902;28;20213;-65
2022/01/03 07:31:13;;;;;;;10.90;4.57;;;;;;;;;;5036847;28;20183;-65
2022/01/03 07:33:39;;;;;;;17.77;4.50;;;;;;;;;;5037087;28;20187;-67
2022/01/03 07:36:06;;;;;;;11.90;3.70;;;;;;;;;;5037246;28;20225;-66
2022/01/03 07:38:32;;;;;;;15.07;4.50;;;;;;;;;;5036359;28;20655;-65
2022/01/03 07:40:59;;;;;;;16.27;5.00;;;;;;;;;;5048675;28;20171;-66
2022/01/03 07:43:25;;;;;;;9.57;3.80;;;;;;;;;;5050251;28;20221;-65
2022/01/03 07:45:51;;;;;;;16.60;3.27;;;;;;;;;;5051912;28;20195;-66
2022/01/03 07:48:17;;;;;;;12.03;4.10;;;;;;;;;;5045364;28;20187;-66
2022/01/03 07:50:42;;;;;;;9.10;2.73;;;;;;;;;;5036527;28;20579;-66
2022/01/03 07:53:09;;;;;;;14.10;2.93;;;;;;;;;;5035763;28;20186;-67
2022/01/03 07:55:35;;;;;;;8.93;3.17;;;;;;;;;;5035665;28;20615;-65
2022/01/03 07:58:02;;;;;;;17.17;3.93;;;;;;;;;;5035030;28;20202;-66
2022/01/03 08:00:28;;;;;;;18.97;3.90;;;;;;;;;;5036161;28;20258;-65
2022/01/03 08:02:54;;;;;;;15.50;4.70;;;;;;;;;;5036427;28;20199;-66
2022/01/03 08:05:20;;;;;;;15.80;4.30;;;;;;;;;;5037229;28;20221;-65
2022/01/03 08:07:46;;;;;;;12.83;3.80;;;;;;;;;;5034659;28;20237;-66
2022/01/03 08:10:13;;;;;;;13.80;4.10;;;;;;;;;;5035235;28;20190;-66
2022/01/03 08:12:39;;;;;;;17.97;5.20;;;;;;;;;;5036142;28;20179;-65
2022/01/03 08:15:06;;;;;;;12.93;3.80;;;;;;;;;;5035413;28;20197;-65
2022/01/03 08:17:33;;;;;;;16.70;4.60;;;;;;;;;;5035596;28;20184;-66
2022/01/03 08:19:59;;;;;;;14.33;3.83;;;;;;;;;;5035330;28;20623;-67
2022/01/03 08:22:25;;;;;;;14.27;4.13;;;;;;;;;;5034344;28;20274;-65
2022/01/03 08:24:50;;;;;;;14.57;4.27;;;;;;;;;;5035997;28;20227;-65
2022/01/03 08:27:17;;;;;;;22.50;4.73;;;;;;;;;;5035358;28;20206;-64
2022/01/03 08:29:42;;;;;;;15.17;4.43;;;;;;;;;;5035711;28;20179;-66
2022/01/03 08:32:08;;;;;;;16.07;4.73;;;;;;;;;;5046580;28;20198;-65
2022/01/03 08:34:35;;;;;;;17.00;4.47;;;;;;;;;;5054202;28;20217;-66
2022/01/03 08:37:00;;;;;;;17.03;3.83;;;;;;;;;;5039136;28;20210;-64
2022/01/03 08:39:27;;;;;;;11.47;2.73;;;;;;;;;;5037140;28;20199;-65
2022/01/03 08:41:53;;;;;;;16.33;3.73;;;;;;;;;;5035701;28;20203;-65
2022/01/03 08:44:19;;;;;;;14.20;3.30;;;;;;;;;;5034403;28;20175;-65
2022/01/03 08:46:46;;;;;;;17.70;4.90;;;;;;;;;;5035189;28;20171;-64
2022/01/03 08:49:12;;;;;;;20.97;5.13;;;;;;;;;;5035180;28;20179;-65
2022/01/03 08:51:38;;;;;;;9.77;3.93;;;;;;;;;;5035041;28;20186;-65
2022/01/03 08:54:04;;;;;;;23.47;7.00;;;;;;;;;;5033688;28;20183;-64
2022/01/03 08:56:30;;;;;;;18.40;5.87;;;;;;;;;;5033813;28;20179;-65
2022/01/03 08:58:56;;;;;;;16.17;4.07;;;;;;;;;;5034872;28;20564;-64
2022/01/03 09:01:22;;;;;;;10.03;3.03;;;;;;;;;;5034821;28;20201;-64
2022/01/03 09:03:50;;;;;;;16.50;3.73;;;;;;;;;;5034927;28;20175;-64
2022/01/03 09:06:17;;;;;;;16.90;3.73;;;;;;;;;;5040423;28;20202;-64
2022/01/03 09:08:43;;;;;;;21.40;4.00;;;;;;;;;;5042732;28;20181;-67
2022/01/03 09:11:09;;;;;;;20.03;3.87;;;;;;;;;;5041003;28;20552;-64
2022/01/03 09:13:35;;;;;;;15.47;4.87;;;;;;;;;;5041078;28;20241;-65
2022/01/03 09:16:06;;;;;;;14.07;3.97;;;;;;;;;;5037896;28;20199;-66
2022/01/03 09:18:32;;;;;;;16.30;4.23;;;;;;;;;;5039868;28;20262;-65
2022/01/03 09:20:58;;;;;;;12.43;3.90;;;;;;;;;;5039536;28;20305;-65
2022/01/03 09:23:28;;;;;;;14.00;3.33;;;;;;;;;;5039966;28;20222;-65
2022/01/03 09:28:49;;;;;;;9.07;3.40;;;;;;;;;;5040754;28;20261;-66
2022/01/03 09:31:20;;;;;;;10.40;3.77;;;;;;;;;;5040979;28;20223;-66
2022/01/03 09:33:46;;;;;;;14.17;4.27;;;;;;;;;;5041853;28;20191;-65
2022/01/03 09:36:12;;;;;;;14.90;4.63;;;;;;;;;;5042513;28;20203;-65
2022/01/03 09:38:38;;;;;;;18.50;5.03;;;;;;;;;;5042196;28;20207;-65
2022/01/03 09:41:06;;;;;;;12.07;3.53;;;;;;;;;;5040562;28;20186;-66
2022/01/03 09:43:49;;;;;;;13.00;3.57;;;;;;;;;;5042511;28;20217;-65
2022/01/03 09:46:19;;;;;;;15.20;4.63;;;;;;;;;;5042342;28;20572;-65
2022/01/03 09:48:51;;;;;;;12.33;3.17;;;;;;;;;;5039686;28;20189;-64
2022/01/03 09:51:17;;;;;;;11.77;4.90;;;;;;;;;;5034911;28;20159;-64
2022/01/03 09:53:43;;;;;;;11.67;3.90;;;;;;;;;;5032621;28;20223;-64
2022/01/03 09:56:09;;;;;;;12.70;4.77;;;;;;;;;;5033713;28;20285;-64
2022/01/03 09:58:36;;;;;;;19.50;4.93;;;;;;;;;;5033765;28;20211;-64
2022/01/03 10:01:02;;;;;;;12.50;3.80;;;;;;;;;;5034103;28;20179;-65
2022/01/03 10:03:28;;;;;;;13.33;3.60;;;;;;;;;;5032932;28;20201;-64
2022/01/03 10:05:55;;;;;;;14.43;4.93;;;;;;;;;;5033736;28;20667;-64
2022/01/03 10:08:21;;;;;;;10.90;3.70;;;;;;;;;;5032996;28;20191;-65
2022/01/03 10:10:49;;;;;;;22.90;8.37;;;;;;;;;;5034040;28;20183;-65
2022/01/03 10:13:15;;;;;;;23.50;7.57;;;;;;;;;;5034097;28;20186;-65
2022/01/03 10:15:42;;;;;;;13.60;4.80;;;;;;;;;;5033325;28;20195;-64
2022/01/03 10:18:15;;;;;;;10.43;4.00;;;;;;;;;;5033559;28;20237;-64
2022/01/03 10:20:41;;;;;;;12.80;4.50;;;;;;;;;;5032353;28;20171;-64
2022/01/03 10:23:08;;;;;;;19.03;6.57;;;;;;;;;;5032358;28;20663;-65
2022/01/03 10:25:35;;;;;;;14.30;4.07;;;;;;;;;;5033904;28;20569;-65
2022/01/03 10:28:03;;;;;;;12.60;4.10;;;;;;;;;;5033188;28;20270;-65
2022/01/03 10:30:35;;;;;;;13.00;3.53;;;;;;;;;;5034603;28;20171;-65
2022/01/03 10:33:03;;;;;;;15.07;4.40;;;;;;;;;;5032589;28;20180;-65
2022/01/03 10:35:34;;;;;;;18.30;7.20;;;;;;;;;;5038017;28;20236;-66
2022/01/03 10:38:00;;;;;;;8.77;3.70;;;;;;;;;;5037447;28;20170;-65
2022/01/03 10:40:31;;;;;;;16.20;4.50;;;;;;;;;;5037539;28;20254;-65
2022/01/03 10:42:58;;;;;;;19.33;6.93;;;;;;;;;;5037326;28;20159;-65
2022/01/03 10:45:31;;;;;;;10.97;5.10;;;;;;;;;;5037228;28;20225;-65
2022/01/03 10:47:58;;;;;;;18.73;5.63;;;;;;;;;;5035819;28;20209;-65
2022/01/03 10:50:25;;;;;;;13.20;3.30;;;;;;;;;;5035702;28;20225;-65
2022/01/03 10:52:51;;;;;;;13.03;3.33;;;;;;;;;;5037137;28;20178;-65
2022/01/03 10:55:33;;;;;;;14.07;4.27;;;;;;;;;;5035931;28;20203;-65
2022/01/03 10:58:01;;;;;;;14.80;4.47;;;;;;;;;;5035731;28;20175;-66
2022/01/03 11:00:32;;;;;;;12.60;4.13;;;;;;;;;;5036928;28;20666;-65
2022/01/03 11:03:10;;;;;;;14.87;3.73;;;;;;;;;;5035356;28;20178;-65
2022/01/03 11:05:40;;;;;;;12.23;3.77;;;;;;;;;;5036754;28;20214;-65
2022/01/03 11:10:45;;;;;;;12.93;3.73;;;;;;;;;;5037179;28;20185;-65
2022/01/03 11:13:11;;;;;;;12.43;4.43;;;;;;;;;;5036520;28;20159;-65
2022/01/03 11:15:38;;;;;;;18.30;4.23;;;;;;;;;;5036761;28;20199;-64
2022/01/03 11:18:21;;;;;;;16.03;3.50;;;;;;;;;;5036885;28;20233;-65
2022/01/03 11:20:50;;;;;;;12.50;3.10;;;;;;;;;;5035802;28;20183;-65
2022/01/03 11:23:20;;;;;;;15.03;3.50;;;;;;;;;;5035657;28;20183;-65
2022/01/03 11:25:46;;;;;;;11.87;4.33;;;;;;;;;;5036437;28;20215;-65
2022/01/03 11:28:12;;;;;;;15.63;4.87;;;;;;;;;;5047719;28;20202;-65
2022/01/03 11:30:39;;;;;;;16.00;4.80;;;;;;;;;;5054227;28;20186;-65
2022/01/03 11:33:08;;;;;;;10.43;3.67;;;;;;;;;;5037599;28;20206;-65
2022/01/03 11:35:34;;;;;;;10.80;3.03;;;;;;;;;;5037034;28;20333;-66
2022/01/03 11:38:00;;;;;;;13.73;3.80;;;;;;;;;;5037728;28;20211;-65
2022/01/03 11:40:27;;;;;;;10.87;3.67;;;;;;;;;;5035494;28;20655;-65
2022/01/03 11:42:53;;;;;;;10.27;2.97;;;;;;;;;;5035111;28;20581;-65
2022/01/03 11:45:19;;;;;;;10.67;3.23;;;;;;;;;;5051592;23;20227;-64
2022/01/03 11:47:45;;;;;;;12.53;3.70;;;;;;;;;;5050901;28;20262;-66
2022/01/03 11:50:11;;;;;;;16.70;3.90;;;;;;;;;;5035850;28;20183;-66
2022/01/03 11:52:39;;;;;;;9.33;3.07;;;;;;;;;;5035784;28;20186;-67
2022/01/03 11:55:06;;;;;;;8.80;2.87;;;;;;;;;;5035429;28;20227;-64
2022/01/03 11:57:56;;;;;;;9.57;3.57;;;;;;;;;;5034147;28;20175;-64
2022/01/03 12:05:55;;;;;;;10.87;3.33;;;;;;;;;;5035449;28;20233;-64
2022/01/03 12:08:22;;;;;;;7.50;2.87;;;;;;;;;;5035152;28;20203;-63
2022/01/03 12:10:48;;;;;;;10.00;3.37;;;;;;;;;;5035692;28;20178;-66
2022/01/03 12:13:14;;;;;;;13.10;4.07;;;;;;;;;;5033986;28;20265;-65
2022/01/03 12:15:42;;;;;;;18.77;4.20;;;;;;;;;;5035544;28;20195;-65
2022/01/03 12:18:28;;;;;;;15.50;3.93;;;;;;;;;;5033782;28;20211;-65
2022/01/03 12:20:54;;;;;;;12.93;4.03;;;;;;;;;;5033655;28;20163;-65
2022/01/03 12:23:35;;;;;;;15.47;3.83;;;;;;;;;;5035148;28;20178;-65
2022/01/03 12:26:11;;;;;;;9.60;3.37;;;;;;;;;;5033500;28;20270;-65
2022/01/03 12:28:56;;;;;;;11.90;3.97;;;;;;;;;;5033499;28;20175;-64
2022/01/03 12:31:22;;;;;;;11.97;2.90;;;;;;;;;;5033496;28;20186;-64
2022/01/03 12:34:07;;;;;;;10.70;2.80;;;;;;;;;;5034794;28;20186;-64
2022/01/03 12:36:32;;;;;;;13.30;3.10;;;;;;;;;;5033883;28;20222;-65
2022/01/03 12:39:09;;;;;;;6.87;3.00;;;;;;;;;;5033504;28;20242;-65
2022/01/03 12:41:39;;;;;;;12.17;3.63;;;;;;;;;;5034969;28;20182;-65
2022/01/03 12:44:05;;;;;;;13.47;3.07;;;;;;;;;;5034681;28;20684;-65
2022/01/03 12:46:31;;;;;;;10.30;3.67;;;;;;;;;;5035681;28;20163;-65
2022/01/03 12:49:16;;;;;;;11.73;3.97;;;;;;;;;;5035202;28;20183;-65
2022/01/03 12:51:42;;;;;;;12.53;3.67;;;;;;;;;;5034061;28;20183;-65
2022/01/03 12:54:10;;;;;;;10.67;3.70;;;;;;;;;;5034374;28;20866;-65
2022/01/03 12:56:37;;;;;;;8.73;3.70;;;;;;;;;;5033884;28;20544;-65
2022/01/03 12:59:13;;;;;;;13.67;3.97;;;;;;;;;;5035062;28;20201;-65
2022/01/03 13:01:39;;;;;;;18.30;3.57;;;;;;;;;;5034375;28;20242;-66
2022/01/03 13:04:22;;;;;;;11.73;3.37;;;;;;;;;;5033338;28;20250;-65
2022/01/03 13:06:48;;;;;;;10.83;3.23;;;;;;;;;;5034333;28;20668;-65
2022/01/03 13:09:14;;;;;;;10.90;3.80;;;;;;;;;;5034129;28;20705;-65
2022/01/03 13:11:40;;;;;;;9.67;3.10;;;;;;;;;;5034488;28;20187;-65
2022/01/03 13:14:12;;;;;;;12.90;3.43;;;;;;;;;;5034339;28;20202;-64
2022/01/03 13:16:38;;;;;;;9.43;3.30;;;;;;;;;;5032919;28;20651;-65
2022/01/03 13:19:06;;;;;;;10.33;2.93;;;;;;;;;;5033997;28;20205;-66
2022/01/03 13:21:36;;;;;;;8.13;3.00;;;;;;;;;;5032900;28;20179;-64
2022/01/03 13:24:04;;;;;;;9.23;2.93;;;;;;;;;;5033956;28;20214;-65
2022/01/03 13:26:32;;;;;;;7.37;2.93;;;;;;;;;;5032502;28;20179;-65
2022/01/03 13:28:59;;;;;;;10.03;2.33;;;;;;;;;;5032882;28;20191;-65
2022/01/03 13:31:26;;;;;;;8.60;2.50;;;;;;;;;;5032775;28;20208;-65
2022/01/03 13:33:59;;;;;;;7.03;2.83;;;;;;;;;;5033643;28;20186;-65
2022/01/03 13:36:38;;;;;;;6.70;2.07;;;;;;;;;;5034184;28;20305;-65
2022/01/03 13:39:08;;;;;;;9.60;3.30;;;;;;;;;;5033794;28;20285;-65
2022/01/03 13:41:35;;;;;;;11.43;3.07;;;;;;;;;;5033860;28;20179;-65
2022/01/03 13:44:01;;;;;;;8.57;3.10;;;;;;;;;;5032335;28;20195;-66
2022/01/03 13:49:14;;;;;;;12.87;2.77;;;;;;;;;;5034107;28;20182;-65
2022/01/03 13:51:47;;;;;;;7.93;2.33;;;;;;;;;;5033748;28;20175;-65
2022/01/03 13:54:23;;;;;;;5.80;2.53;;;;;;;;;;5033615;28;20203;-65
2022/01/03 13:56:49;;;;;;;6.03;2.33;;;;;;;;;;5032501;28;20309;-65
2022/01/03 13:59:16;;;;;;;10.67;2.77;;;;;;;;;;5033473;28;20198;-66
2022/01/03 14:01:42;;;;;;;7.43;2.83;;;;;;;;;;5033660;28;20199;-65
2022/01/03 14:04:08;;;;;;;10.13;3.37;;;;;;;;;;5033650;28;20205;-65
2022/01/03 14:06:34;;;;;;;16.33;3.50;;;;;;;;;;5032148;28;20269;-65
2022/01/03 14:09:10;;;;;;;6.47;2.47;;;;;;;;;;5035496;28;20214;-65
2022/01/03 14:11:36;;;;;;;11.90;4.50;;;;;;;;;;5037586;28;20229;-65
2022/01/03 14:14:12;;;;;;;6.23;2.53;;;;;;;;;;5037393;28;20246;-65
2022/01/03 14:16:50;;;;;;;16.60;3.30;;;;;;;;;;5037807;28;20269;-65
2022/01/03 14:19:16;;;;;;;9.80;2.83;;;;;;;;;;5037142;28;20210;-65
2022/01/03 14:21:43;;;;;;;8.47;2.70;;;;;;;;;;5037615;28;20171;-65
2022/01/03 14:24:10;;;;;;;13.43;3.40;;;;;;;;;;5037199;28;20195;-65
2022/01/03 14:26:36;;;;;;;9.83;3.87;;;;;;;;;;5035931;28;20175;-65
2022/01/03 14:29:08;;;;;;;9.50;3.63;;;;;;;;;;5037210;28;20175;-65
2022/01/03 14:31:45;;;;;;;14.80;3.40;;;;;;;;;;5035918;28;20698;-65
2022/01/03 14:34:11;;;;;;;11.10;3.43;;;;;;;;;;5037079;28;20232;-65
2022/01/03 14:36:38;;;;;;;8.87;3.23;;;;;;;;;;5035714;28;20186;-65
2022/01/03 14:39:04;;;;;;;10.77;3.10;;;;;;;;;;5036698;28;20694;-65
2022/01/03 14:41:30;;;;;;;16.67;3.67;;;;;;;;;;5036908;28;20179;-65
2022/01/03 14:44:00;;;;;;;8.17;3.13;;;;;;;;;;5036875;28;20636;-66
2022/01/03 14:46:35;;;;;;;7.17;2.17;;;;;;;;;;5036960;28;20225;-66
2022/01/03 14:49:01;;;;;;;7.03;2.27;;;;;;;;;;5036750;28;20174;-66
2022/01/03 14:51:34;;;;;;;7.27;1.97;;;;;;;;;;5037015;28;20202;-65
2022/01/03 14:54:32;;;;;;;4.67;2.50;;;;;;;;;;5036597;28;20190;-65
2022/01/03 14:57:14;;;;;;;5.03;1.80;;;;;;;;;;5021031;28;20218;-65